CPX116 Details

Departure: Los Angeles International Airport (KLAX)
Arrival: Daniel K Inouye International Airport (PHNL) at N/A
Route: SUMMR1 DINTY DUETS R576 DENNS MAGGI3
Notes:


Current Weather Information
KLAX 231353Z 07005KT 10SM CLR 20/04 A2990 RMK AO2 SLP122 T02000039
PHNL 231353Z 06008KT 10SM FEW025 SCT040 27/20 A2993 RMK AO2 SLP134 T02670200